Terminal Aerodrome Forecast
Issued by NWS

Home | Current Version | Previous Version | Text Only | Print | Product List | Glossary On
Versions: 1 2 3 4 5 6 7 8 9 10 11 12 13
211
FTPA31 PHFO 061132
TAFHMK
TAF
PHMK 061132Z 0612/0712 02005KT P6SM FEW020 SCT040
     FM062000 02010KT P6SM SCT020 SCT040
     FM070500 02005KT P6SM FEW020 SCT040=

USA.gov is the U.S. government's official web portal to all federal, state and local government web resources and services.